Time;durP1;ratioP1;P1;durP2;ratioP2;P2;SDS_P1;SDS_P2;PMS_P1;PMS_P2;Temp;Humidity;BMP_temperature;BMP_pressure;BME280_temperature;BME280_humidity;BME280_pressure;Samples;Min_cycle;Max_cycle;Signal;HPM_P1;HPM_P2
2023/06/06 22:02:08;;;;;;;17.70;5.10;;;;;;;20.49;36.43;100306.30;102970;1257;97807;-82
2023/06/06 22:04:36;;;;;;;10.90;5.10;;;;;;;20.46;36.48;100311.45;103001;1256;137712;-81
2023/06/06 22:07:04;;;;;;;10.60;5.00;;;;;;;20.43;36.64;100314.83;103091;1255;108885;-81
2023/06/06 22:09:31;;;;;;;7.50;5.20;;;;;;;20.40;36.69;100315.75;103050;1255;138188;-81
2023/06/06 22:11:59;;;;;;;11.90;4.60;;;;;;;20.38;37.08;100317.46;104259;1254;107008;-82
2023/06/06 22:14:26;;;;;;;9.00;4.60;;;;;;;20.36;37.08;100318.85;104489;1255;138160;-82
2023/06/06 22:16:54;;;;;;;7.40;4.60;;;;;;;20.35;37.30;100311.16;104641;1255;112545;-81
2023/06/06 22:19:21;;;;;;;9.00;4.70;;;;;;;20.34;37.26;100306.33;104631;1256;107054;-82
2023/06/06 22:21:49;;;;;;;7.60;5.20;;;;;;;20.33;37.30;100305.83;104514;1256;138697;-82
2023/06/06 22:24:16;;;;;;;16.00;5.00;;;;;;;20.32;37.66;100303.67;104632;1258;108597;-81
2023/06/06 22:26:44;;;;;;;11.00;4.70;;;;;;;20.28;37.71;100300.54;104525;1256;138787;-82
2023/06/06 22:29:11;;;;;;;10.00;5.40;;;;;;;20.25;37.92;100307.09;104631;1253;111468;-82
2023/06/06 22:31:38;;;;;;;10.70;5.90;;;;;;;20.21;38.11;100303.16;104622;1255;106871;-82
2023/06/06 22:34:06;;;;;;;9.70;5.00;;;;;;;20.17;38.39;100305.38;104508;1254;138848;-82
2023/06/06 22:36:33;;;;;;;13.40;5.40;;;;;;;20.13;38.08;100300.36;104598;1257;108512;-82
2023/06/06 22:39:00;;;;;;;12.10;5.70;;;;;;;20.11;38.36;100300.20;104517;1254;138510;-82
2023/06/06 22:41:27;;;;;;;10.60;4.90;;;;;;;20.06;38.42;100294.35;104636;1256;111242;-82
2023/06/06 22:43:54;;;;;;;8.50;5.00;;;;;;;20.03;38.55;100298.48;104524;1256;107526;-81
2023/06/06 22:46:22;;;;;;;14.70;5.60;;;;;;;19.99;38.76;100298.24;104562;1258;137966;-82
2023/06/06 22:48:49;;;;;;;10.20;5.50;;;;;;;19.96;38.98;100299.88;104636;1254;107345;-81
2023/06/06 22:51:16;;;;;;;13.50;5.40;;;;;;;19.91;38.97;100296.98;104503;1253;138493;-82
2023/06/06 22:53:44;;;;;;;11.50;5.70;;;;;;;19.86;39.27;100292.06;104663;1254;112900;-82
2023/06/06 22:56:12;;;;;;;13.70;5.90;;;;;;;19.80;39.38;100290.91;104607;1253;106047;-82
2023/06/06 22:58:39;;;;;;;19.40;6.00;;;;;;;19.76;39.41;100292.43;104504;1253;137924;-82
2023/06/06 23:01:06;;;;;;;13.00;5.50;;;;;;;19.71;39.61;100289.41;104615;1256;108848;-82
2023/06/06 23:03:35;;;;;;;9.90;5.70;;;;;;;19.66;39.69;100288.56;104583;1253;138705;-82
2023/06/06 23:06:02;;;;;;;14.40;6.00;;;;;;;19.62;39.89;100285.97;104747;1253;112705;-81
2023/06/06 23:08:30;;;;;;;13.70;5.70;;;;;;;19.58;39.99;100290.65;104470;1255;138666;-81
2023/06/06 23:10:57;;;;;;;15.70;5.50;;;;;;;19.54;39.86;100289.16;104657;1253;95975;-81
2023/06/06 23:13:24;;;;;;;10.40;5.60;;;;;;;19.51;40.02;100286.51;104697;1253;108670;-82
2023/06/06 23:15:52;;;;;;;13.80;6.20;;;;;;;19.48;40.16;100284.96;104575;1253;138557;-80
2023/06/06 23:18:20;;;;;;;15.10;6.60;;;;;;;19.44;40.13;100282.41;104705;1253;111609;-81
2023/06/06 23:20:47;;;;;;;12.00;5.40;;;;;;;19.42;39.97;100280.14;104531;1253;138804;-81
2023/06/06 23:23:14;;;;;;;13.10;6.30;;;;;;;19.40;40.01;100278.66;104661;1254;95965;-81
2023/06/06 23:25:41;;;;;;;14.40;6.20;;;;;;;19.39;39.81;100279.09;104573;1254;107328;-81
2023/06/06 23:28:08;;;;;;;11.80;5.60;;;;;;;19.40;39.76;100281.70;104474;1253;138316;-81
2023/06/06 23:30:35;;;;;;;11.60;6.00;;;;;;;19.41;39.68;100278.80;104743;1253;110694;-81
2023/06/06 23:33:02;;;;;;;8.80;5.60;;;;;;;19.41;39.57;100276.11;104459;1253;138290;-81
2023/06/06 23:35:30;;;;;;;9.40;5.40;;;;;;;19.41;39.31;100272.43;104702;1253;95931;-81
2023/06/06 23:37:57;;;;;;;11.70;5.60;;;;;;;19.39;39.41;100272.72;104636;1253;107629;-81
2023/06/06 23:40:24;;;;;;;9.30;5.30;;;;;;;19.38;39.40;100272.45;104555;1253;138164;-81
2023/06/06 23:42:52;;;;;;;10.30;5.80;;;;;;;19.37;39.54;100271.83;104660;1254;111276;-81
2023/06/06 23:45:19;;;;;;;12.20;5.90;;;;;;;19.34;39.37;100271.14;104544;1253;138998;-81
2023/06/06 23:47:46;;;;;;;11.80;5.30;;;;;;;19.29;39.55;100268.23;104746;1253;95943;-81
2023/06/06 23:50:14;;;;;;;12.10;5.70;;;;;;;19.26;39.56;100264.79;104674;1253;108590;-81
2023/06/06 23:52:41;;;;;;;15.30;6.30;;;;;;;19.22;39.56;100264.02;104582;1253;138358;-81
2023/06/06 23:55:09;;;;;;;12.60;5.80;;;;;;;19.18;39.74;100263.73;104757;1253;110721;-81
2023/06/06 23:57:36;;;;;;;10.20;5.80;;;;;;;19.15;39.92;100261.85;104515;1253;138532;-81
